Time;durP1;ratioP1;P1;durP2;ratioP2;P2;SDS_P1;SDS_P2;PMS_P1;PMS_P2;Temp;Humidity;BMP_temperature;BMP_pressure;BME280_temperature;BME280_humidity;BME280_pressure;Samples;Min_cycle;Max_cycle;Signal;HPM_P1;HPM_P2
2021/05/25 00:00:50;;;;;;;1.75;0.40;;;9.10;99.90;;;;;;4968159;28;20046;-71
2021/05/25 00:03:17;;;;;;;1.00;0.20;;;9.00;99.90;;;;;;4971422;28;20027;-70
2021/05/25 00:05:42;;;;;;;1.20;0.25;;;8.90;99.90;;;;;;4971008;28;20073;-71
2021/05/25 00:08:09;;;;;;;2.33;0.60;;;8.90;99.90;;;;;;4970637;28;20035;-71
2021/05/25 00:10:35;;;;;;;0.20;0.20;;;8.90;99.90;;;;;;4970678;28;20470;-71
2021/05/25 00:13:02;;;;;;;0.40;0.13;;;8.90;99.90;;;;;;4971090;28;20038;-71
2021/05/25 00:15:30;;;;;;;1.10;0.30;;;8.90;99.90;;;;;;4970947;28;20480;-71
2021/05/25 00:17:56;;;;;;;0.82;0.20;;;8.90;99.90;;;;;;4970152;28;20034;-71
2021/05/25 00:20:24;;;;;;;0.52;0.20;;;8.90;99.90;;;;;;4971533;28;20487;-71
2021/05/25 00:22:50;;;;;;;0.50;0.10;;;8.90;99.90;;;;;;4970667;28;20094;-71
2021/05/25 00:25:17;;;;;;;0.20;0.10;;;8.80;99.90;;;;;;4969661;28;20520;-70
2021/05/25 00:27:44;;;;;;;0.73;0.40;;;8.80;99.90;;;;;;4969687;28;20047;-71
2021/05/25 00:30:13;;;;;;;0.88;0.10;;;8.80;99.90;;;;;;4985789;28;20077;-70
2021/05/25 00:32:40;;;;;;;2.17;0.40;;;8.90;99.90;;;;;;4969076;28;20038;-71
2021/05/25 00:35:06;;;;;;;0.35;0.13;;;8.90;99.90;;;;;;4970627;28;20039;-70
2021/05/25 00:37:31;;;;;;;0.85;0.30;;;8.90;99.90;;;;;;4965273;28;20039;-70
2021/05/25 00:39:57;;;;;;;0.80;0.47;;;8.90;99.90;;;;;;4969878;28;20038;-70
2021/05/25 00:42:23;;;;;;;2.08;0.20;;;8.90;99.90;;;;;;4985903;28;20416;-71
2021/05/25 00:44:48;;;;;;;0.52;0.20;;;8.90;99.90;;;;;;4970381;28;20039;-71
2021/05/25 00:47:14;;;;;;;0.25;0.10;;;8.80;99.90;;;;;;4970782;28;20035;-71
2021/05/25 00:49:40;;;;;;;0.52;0.30;;;8.90;99.90;;;;;;4969863;28;20391;-71
2021/05/25 00:52:06;;;;;;;0.20;0.10;;;8.90;99.90;;;;;;4970500;28;20147;-70
2021/05/25 00:54:32;;;;;;;2.30;0.47;;;8.90;99.90;;;;;;4969831;28;20073;-70
2021/05/25 00:56:58;;;;;;;0.50;0.30;;;8.90;99.90;;;;;;4968677;28;20039;-71
2021/05/25 00:59:28;;;;;;;0.80;0.50;;;8.90;99.90;;;;;;4969699;28;20042;-70
2021/05/25 01:01:53;;;;;;;0.43;0.10;;;8.90;99.90;;;;;;4969849;28;20092;-71
2021/05/25 01:04:19;;;;;;;0.90;0.22;;;8.90;99.90;;;;;;4970420;28;20437;-70
2021/05/25 01:06:45;;;;;;;0.60;0.22;;;8.90;99.90;;;;;;4968178;28;20050;-71
2021/05/25 01:09:11;;;;;;;1.92;0.82;;;8.90;99.90;;;;;;4969397;28;20041;-71
2021/05/25 01:11:40;;;;;;;0.95;0.20;;;8.90;99.90;;;;;;4970246;28;20033;-73
2021/05/25 01:14:06;;;;;;;0.68;0.22;;;8.80;99.90;;;;;;4968459;28;20478;-71
2021/05/25 01:16:32;;;;;;;1.05;0.20;;;8.80;99.90;;;;;;4985689;28;20501;-70
2021/05/25 01:18:58;;;;;;;0.50;0.30;;;8.80;99.90;;;;;;4968854;28;20039;-70
2021/05/25 01:21:26;;;;;;;1.00;0.30;;;8.80;99.90;;;;;;4976083;28;20046;-71
2021/05/25 01:23:52;;;;;;;3.28;0.52;;;8.70;99.90;;;;;;4965279;28;20065;-71
2021/05/25 01:26:18;;;;;;;0.90;0.47;;;8.70;99.90;;;;;;4968817;28;20043;-70
2021/05/25 01:28:46;;;;;;;1.00;0.55;;;8.70;99.90;;;;;;4968770;28;20065;-71
2021/05/25 01:31:12;;;;;;;5.75;1.23;;;8.60;99.90;;;;;;4967670;28;20123;-70
2021/05/25 01:33:38;;;;;;;2.55;0.60;;;8.60;99.90;;;;;;4969918;28;20522;-70
2021/05/25 01:36:07;;;;;;;1.30;0.52;;;8.50;99.90;;;;;;4969181;28;20054;-70
2021/05/25 01:38:33;;;;;;;1.85;0.82;;;8.50;99.90;;;;;;4966711;28;20034;-71
2021/05/25 01:40:59;;;;;;;2.53;0.98;;;8.50;99.90;;;;;;4968900;28;20034;-70
2021/05/25 01:43:25;;;;;;;2.65;1.00;;;8.40;99.90;;;;;;4968736;28;20031;-70
2021/05/25 01:45:51;;;;;;;2.05;0.77;;;8.30;99.90;;;;;;4968860;28;20101;-71
2021/05/25 01:48:17;;;;;;;4.85;1.10;;;8.20;99.90;;;;;;4967315;28;20462;-70
2021/05/25 01:50:43;;;;;;;3.40;1.75;;;8.20;99.90;;;;;;4969569;28;20050;-70
2021/05/25 01:53:18;;;;;;;2.80;1.27;;;8.20;99.90;;;;;;4969499;28;20055;-71
2021/05/25 01:55:49;;;;;;;3.05;1.50;;;8.10;99.90;;;;;;4968619;28;20035;-70
2021/05/25 01:58:19;;;;;;;2.22;1.27;;;8.10;99.90;;;;;;4982569;28;20045;-70
2021/05/25 02:00:50;;;;;;;4.05;1.35;;;8.00;99.90;;;;;;4969068;28;20037;-70
2021/05/25 02:03:16;;;;;;;4.93;1.40;;;8.00;99.90;;;;;;4968628;28;20031;-70
2021/05/25 02:05:43;;;;;;;4.90;1.42;;;7.90;99.90;;;;;;4968726;28;20035;-70
2021/05/25 02:08:09;;;;;;;3.53;1.65;;;7.90;99.90;;;;;;4968354;28;20038;-71
2021/05/25 02:10:36;;;;;;;2.78;1.42;;;7.90;99.90;;;;;;4968597;28;20030;-70
2021/05/25 02:13:07;;;;;;;4.18;1.63;;;7.80;99.90;;;;;;4972082;28;20031;-70
2021/05/25 02:15:34;;;;;;;4.10;2.03;;;7.80;99.90;;;;;;4973943;28;20049;-69
2021/05/25 02:18:29;;;;;;;2.97;1.85;;;7.80;99.90;;;;;;4987960;28;20073;-69
2021/05/25 02:20:57;;;;;;;11.68;3.33;;;7.70;99.90;;;;;;4973926;28;20053;-69
2021/05/25 02:23:24;;;;;;;7.82;2.35;;;7.70;99.90;;;;;;4989077;28;20869;-69
2021/05/25 02:25:50;;;;;;;4.75;2.25;;;7.60;99.90;;;;;;4972292;28;20042;-70
2021/05/25 02:28:16;;;;;;;6.68;2.20;;;7.60;99.90;;;;;;4973767;28;20060;-69
2021/05/25 02:30:43;;;;;;;4.80;2.42;;;7.60;99.90;;;;;;4974047;28;20039;-69
2021/05/25 02:33:11;;;;;;;6.25;2.03;;;7.60;99.90;;;;;;4974232;28;20395;-69
2021/05/25 02:35:38;;;;;;;7.00;2.78;;;7.50;99.90;;;;;;4973572;28;20035;-69
2021/05/25 02:38:06;;;;;;;9.82;2.50;;;7.60;99.90;;;;;;4964527;28;20031;-69
2021/05/25 02:40:32;;;;;;;6.88;2.53;;;7.50;99.90;;;;;;4972201;28;20106;-69
2021/05/25 02:42:58;;;;;;;6.60;2.53;;;7.50;99.90;;;;;;4973106;28;20444;-69
2021/05/25 02:45:24;;;;;;;6.78;2.92;;;7.40;99.90;;;;;;4971875;28;20045;-69
2021/05/25 02:47:50;;;;;;;5.60;2.75;;;7.40;99.90;;;;;;4983224;28;20070;-69
2021/05/25 02:50:16;;;;;;;7.90;2.90;;;7.50;99.90;;;;;;4973004;28;20398;-69
2021/05/25 02:52:45;;;;;;;9.20;2.90;;;7.40;99.90;;;;;;4972730;28;20038;-69
2021/05/25 02:55:13;;;;;;;5.90;2.67;;;7.40;99.90;;;;;;4973064;28;20113;-70
2021/05/25 02:57:39;;;;;;;5.45;2.55;;;7.40;99.90;;;;;;4972098;28;20046;-69
2021/05/25 03:00:14;;;;;;;6.55;3.25;;;7.40;99.90;;;;;;4973252;28;20027;-69
2021/05/25 03:02:39;;;;;;;12.45;4.72;;;7.40;99.90;;;;;;4971263;28;20677;-69
2021/05/25 03:05:07;;;;;;;14.02;2.63;;;7.30;99.90;;;;;;4973734;28;20034;-69
2021/05/25 03:07:33;;;;;;;9.70;3.25;;;7.30;99.90;;;;;;4972960;28;20042;-69
2021/05/25 03:09:58;;;;;;;9.57;3.28;;;7.30;99.90;;;;;;4972467;28;22050;-69
2021/05/25 03:12:24;;;;;;;7.20;2.80;;;7.30;99.90;;;;;;4973672;28;20046;-69
2021/05/25 03:14:49;;;;;;;8.70;3.30;;;7.30;99.90;;;;;;4972921;28;20039;-68
2021/05/25 03:17:15;;;;;;;7.40;2.78;;;7.20;99.90;;;;;;4973932;28;20035;-69
2021/05/25 03:19:41;;;;;;;8.50;3.00;;;7.20;99.90;;;;;;4972647;28;20039;-69
2021/05/25 03:22:07;;;;;;;7.82;3.20;;;7.20;99.90;;;;;;4973451;28;20042;-68
2021/05/25 03:24:32;;;;;;;7.32;2.70;;;7.20;99.90;;;;;;4973575;28;20630;-69
2021/05/25 03:26:59;;;;;;;5.22;2.72;;;7.20;99.90;;;;;;4981320;28;20490;-69
2021/05/25 03:29:24;;;;;;;6.78;3.35;;;7.20;99.90;;;;;;4972704;28;20054;-69
2021/05/25 03:31:50;;;;;;;4.13;2.45;;;7.20;99.90;;;;;;4972257;28;20058;-68
2021/05/25 03:34:15;;;;;;;10.38;3.17;;;7.20;99.90;;;;;;4972864;28;20031;-68
2021/05/25 03:36:41;;;;;;;10.10;3.92;;;7.20;99.90;;;;;;4970016;28;20047;-69
2021/05/25 03:39:07;;;;;;;8.48;3.03;;;7.10;99.90;;;;;;4970898;28;20082;-69
2021/05/25 03:41:33;;;;;;;6.68;2.47;;;7.10;99.90;;;;;;4972759;28;20035;-68
2021/05/25 03:44:00;;;;;;;8.10;3.08;;;7.10;99.90;;;;;;4972123;28;20542;-69
2021/05/25 03:46:26;;;;;;;4.95;2.65;;;7.10;99.90;;;;;;4973063;28;20043;-70
2021/05/25 03:48:52;;;;;;;7.97;2.50;;;7.10;99.90;;;;;;4986547;28;20041;-69
2021/05/25 03:51:17;;;;;;;7.07;3.10;;;7.00;99.90;;;;;;4988122;28;20035;-69
2021/05/25 03:53:43;;;;;;;6.45;3.13;;;7.00;99.90;;;;;;4955223;28;20508;-68
2021/05/25 03:58:48;;;;;;;7.63;2.75;;;7.00;99.90;;;;;;4981260;28;20054;-70
2021/05/25 04:01:25;;;;;;;4.55;2.53;;;7.00;99.90;;;;;;4983259;28;20046;-70
2021/05/25 04:03:53;;;;;;;5.88;2.95;;;7.10;99.90;;;;;;4979779;28;20145;-71
2021/05/25 04:06:19;;;;;;;8.32;2.92;;;7.00;99.90;;;;;;4979743;28;20042;-68
2021/05/25 04:08:46;;;;;;;7.50;2.92;;;7.10;99.90;;;;;;4975864;28;20802;-69
2021/05/25 04:11:12;;;;;;;6.80;2.90;;;7.10;99.90;;;;;;4976304;28;20031;-69
2021/05/25 04:13:39;;;;;;;10.88;2.97;;;7.20;99.90;;;;;;4976508;28;20042;-69
2021/05/25 04:16:08;;;;;;;6.05;2.80;;;7.20;99.90;;;;;;4990629;28;20488;-69
2021/05/25 04:18:34;;;;;;;4.97;3.17;;;7.30;99.90;;;;;;4975468;28;20126;-69
2021/05/25 04:20:59;;;;;;;3.67;2.50;;;7.30;99.90;;;;;;4990519;28;20054;-69
2021/05/25 04:23:25;;;;;;;5.95;3.45;;;7.30;99.90;;;;;;4975523;28;20503;-69
2021/05/25 04:25:51;;;;;;;7.35;2.50;;;7.30;99.90;;;;;;4975960;28;20042;-69
2021/05/25 04:28:16;;;;;;;8.55;3.08;;;7.40;99.90;;;;;;4976484;28;20065;-69
2021/05/25 04:30:42;;;;;;;9.85;3.10;;;7.40;99.90;;;;;;4976784;28;20043;-69
2021/05/25 04:33:08;;;;;;;4.82;2.60;;;7.40;99.90;;;;;;4974408;28;20035;-68
2021/05/25 04:35:34;;;;;;;7.32;3.13;;;7.40;99.90;;;;;;4975444;28;20039;-69
2021/05/25 04:38:00;;;;;;;6.20;2.42;;;7.50;99.90;;;;;;4973798;28;20030;-69
2021/05/25 04:40:26;;;;;;;7.63;3.00;;;7.50;99.90;;;;;;4974932;28;20031;-68
2021/05/25 04:42:52;;;;;;;5.90;3.25;;;7.50;99.90;;;;;;4974211;28;20086;-68
2021/05/25 04:45:19;;;;;;;8.38;3.00;;;7.50;99.90;;;;;;4974187;28;20319;-69
2021/05/25 04:47:45;;;;;;;4.80;2.70;;;7.60;99.90;;;;;;4972744;28;20034;-69
2021/05/25 04:50:12;;;;;;;5.05;2.80;;;7.60;99.90;;;;;;4989333;28;20031;-69
2021/05/25 04:52:38;;;;;;;6.07;2.58;;;7.60;99.90;;;;;;4972963;28;20118;-69
2021/05/25 04:55:06;;;;;;;9.43;2.97;;;7.70;99.90;;;;;;4988748;28;20041;-69
2021/05/25 04:57:32;;;;;;;4.63;2.60;;;7.80;99.90;;;;;;4956475;28;20040;-69
2021/05/25 04:59:58;;;;;;;5.38;2.60;;;7.80;99.90;;;;;;4972314;28;20469;-70
2021/05/25 05:02:24;;;;;;;6.57;2.92;;;7.90;99.90;;;;;;4971142;28;20125;-69
2021/05/25 05:04:49;;;;;;;4.88;2.95;;;7.90;99.90;;;;;;4977005;28;20125;-69
2021/05/25 05:07:15;;;;;;;7.90;3.85;;;8.00;99.90;;;;;;4979308;28;20042;-69
2021/05/25 05:09:41;;;;;;;10.65;3.03;;;8.10;99.90;;;;;;4983399;28;20039;-69
2021/05/25 05:12:07;;;;;;;5.40;2.70;;;8.10;99.90;;;;;;4975679;28;20042;-69
2021/05/25 05:14:33;;;;;;;4.47;2.60;;;8.20;99.90;;;;;;4992989;28;20486;-69
2021/05/25 05:16:58;;;;;;;10.13;3.55;;;8.20;99.90;;;;;;4977444;28;20073;-70
2021/05/25 05:19:24;;;;;;;3.38;2.05;;;8.30;99.90;;;;;;4971169;28;20066;-69
2021/05/25 05:21:50;;;;;;;9.23;2.53;;;8.40;99.90;;;;;;4976409;28;20030;-69
2021/05/25 05:24:16;;;;;;;5.45;2.30;;;8.50;99.90;;;;;;4976016;28;20041;-70
2021/05/25 05:26:41;;;;;;;5.50;2.60;;;8.60;99.90;;;;;;4978742;28;20058;-69
2021/05/25 05:29:07;;;;;;;5.10;3.08;;;8.70;99.90;;;;;;4975719;28;20050;-71
2021/05/25 05:31:34;;;;;;;19.52;2.80;;;8.80;99.90;;;;;;4973907;28;20129;-69
2021/05/25 05:33:59;;;;;;;7.45;2.85;;;9.10;99.90;;;;;;4978969;28;20439;-70
2021/05/25 05:36:25;;;;;;;5.95;2.58;;;9.30;99.90;;;;;;4974538;28;20027;-69
2021/05/25 05:38:50;;;;;;;4.93;2.30;;;9.70;99.90;;;;;;4971390;28;20039;-69
2021/05/25 05:41:17;;;;;;;4.38;2.35;;;10.00;99.90;;;;;;4973558;28;20025;-69
2021/05/25 05:43:43;;;;;;;3.63;2.17;;;10.40;99.90;;;;;;4978622;28;20034;-70
2021/05/25 05:46:09;;;;;;;4.38;1.88;;;10.80;99.90;;;;;;4975876;28;20055;-70
2021/05/25 05:48:35;;;;;;;3.65;2.10;;;11.10;99.90;;;;;;4974105;28;20479;-70
2021/05/25 05:51:00;;;;;;;4.88;2.00;;;11.40;99.90;;;;;;4978830;28;20054;-69
2021/05/25 05:53:26;;;;;;;4.25;1.90;;;11.40;99.90;;;;;;4970024;28;20034;-70
2021/05/25 05:55:52;;;;;;;4.70;1.63;;;11.50;99.90;;;;;;4972858;28;20034;-70
2021/05/25 05:58:17;;;;;;;6.55;1.98;;;11.80;99.90;;;;;;4976839;28;20031;-70
2021/05/25 06:00:44;;;;;;;5.25;1.70;;;11.90;99.90;;;;;;4983128;28;20057;-71
2021/05/25 06:03:11;;;;;;;3.35;1.75;;;12.30;99.90;;;;;;4968724;28;20042;-69
2021/05/25 06:05:38;;;;;;;2.33;1.27;;;12.30;99.90;;;;;;4971923;28;20030;-70
2021/05/25 06:08:05;;;;;;;4.22;1.40;;;12.30;99.90;;;;;;4964513;28;20077;-69
2021/05/25 06:10:32;;;;;;;2.85;1.33;;;12.30;99.90;;;;;;4967463;28;20038;-70
2021/05/25 06:12:58;;;;;;;4.28;1.50;;;12.20;99.90;;;;;;4968883;28;20038;-69
2021/05/25 06:15:25;;;;;;;3.30;1.52;;;12.40;99.90;;;;;;4973100;28;20072;-69
2021/05/25 06:17:51;;;;;;;3.05;1.20;;;12.60;99.90;;;;;;4973492;28;20039;-69
2021/05/25 06:20:16;;;;;;;2.00;1.48;;;12.50;99.90;;;;;;4975267;28;20486;-69
2021/05/25 06:22:42;;;;;;;4.30;2.05;;;12.30;99.90;;;;;;4967514;28;20026;-69
2021/05/25 06:25:09;;;;;;;3.70;1.50;;;12.10;99.90;;;;;;4972699;28;20089;-70
2021/05/25 06:27:36;;;;;;;3.72;1.50;;;11.80;99.90;;;;;;4965871;28;20039;-71
2021/05/25 06:30:02;;;;;;;3.45;1.25;;;11.70;99.90;;;;;;4971812;28;20403;-70
2021/05/25 06:32:28;;;;;;;4.05;1.35;;;11.60;99.90;;;;;;4975057;28;20935;-69
2021/05/25 06:34:54;;;;;;;6.30;1.33;;;11.50;99.90;;;;;;4972420;28;20070;-69
2021/05/25 06:37:20;;;;;;;1.85;0.95;;;11.50;99.90;;;;;;4966072;28;20041;-70
2021/05/25 06:39:45;;;;;;;3.08;1.38;;;11.50;99.90;;;;;;4963148;28;20114;-70
2021/05/25 06:42:11;;;;;;;3.33;1.00;;;11.70;99.90;;;;;;4975722;28;20038;-70
2021/05/25 06:44:37;;;;;;;4.40;0.88;;;11.80;99.90;;;;;;4977408;28;20505;-69
2021/05/25 06:47:03;;;;;;;2.00;1.25;;;12.00;99.90;;;;;;4964375;28;20041;-69
2021/05/25 06:49:29;;;;;;;3.30;0.93;;;12.10;99.90;;;;;;4975427;28;20034;-70
2021/05/25 06:51:54;;;;;;;1.65;1.02;;;12.20;99.90;;;;;;4973765;28;20026;-70
2021/05/25 06:54:20;;;;;;;6.95;0.90;;;12.60;99.90;;;;;;4974531;28;20058;-69
2021/05/25 06:56:45;;;;;;;1.48;0.90;;;12.70;99.90;;;;;;4969577;28;20023;-70
2021/05/25 06:59:11;;;;;;;2.38;0.73;;;12.80;99.90;;;;;;4971671;28;20039;-71
2021/05/25 07:01:37;;;;;;;3.42;1.00;;;12.70;99.90;;;;;;4968041;28;20033;-70
2021/05/25 07:04:03;;;;;;;1.13;0.65;;;12.60;99.90;;;;;;4971956;28;20215;-69
2021/05/25 07:06:28;;;;;;;3.55;0.90;;;12.60;99.90;;;;;;4964740;28;20034;-71
2021/05/25 07:08:54;;;;;;;3.38;0.63;;;14.00;99.90;;;;;;4976621;28;20134;-69
2021/05/25 07:11:21;;;;;;;4.35;1.00;;;15.90;99.90;;;;;;4976011;28;20077;-70
2021/05/25 07:13:47;;;;;;;3.55;0.70;;;17.30;99.90;;;;;;4972740;28;20039;-69
2021/05/25 07:16:13;;;;;;;1.80;0.55;;;17.80;99.90;;;;;;4975004;28;20813;-72
2021/05/25 07:18:39;;;;;;;4.47;0.60;;;17.30;99.90;;;;;;4969869;28;20035;-70
2021/05/25 07:21:05;;;;;;;2.60;0.50;;;17.10;99.90;;;;;;4966368;28;20031;-69
2021/05/25 07:23:30;;;;;;;4.57;0.60;;;17.40;99.90;;;;;;4969642;28;20189;-72
2021/05/25 07:25:56;;;;;;;1.23;0.68;;;17.60;99.90;;;;;;4974345;28;20108;-73
2021/05/25 07:28:22;;;;;;;2.40;0.60;;;17.30;99.90;;;;;;4968314;28;20054;-71
2021/05/25 07:30:48;;;;;;;1.92;0.82;;;16.90;99.90;;;;;;4976442;28;20039;-69
2021/05/25 07:33:14;;;;;;;3.33;0.70;;;16.70;99.90;;;;;;4980229;28;20078;-69
2021/05/25 07:35:40;;;;;;;3.00;0.52;;;16.80;99.90;;;;;;4974277;28;20030;-70
2021/05/25 07:38:06;;;;;;;4.82;0.80;;;16.90;99.90;;;;;;4988109;28;20035;-69
2021/05/25 07:40:32;;;;;;;5.50;0.80;;;16.90;99.90;;;;;;4971270;28;20070;-71
2021/05/25 07:42:57;;;;;;;3.72;0.65;;;16.50;99.90;;;;;;4975954;28;20541;-71
2021/05/25 07:45:23;;;;;;;4.78;0.70;;;16.10;99.90;;;;;;4977939;28;20043;-70
2021/05/25 07:47:49;;;;;;;4.07;1.05;;;15.80;99.90;;;;;;4966768;28;20051;-71
2021/05/25 07:50:16;;;;;;;5.72;0.90;;;15.80;99.90;;;;;;4972743;28;20026;-71
2021/05/25 07:52:50;;;;;;;9.68;1.17;;;15.70;99.90;;;;;;4981100;28;20038;-70
2021/05/25 07:55:20;;;;;;;3.45;0.88;;;15.90;99.90;;;;;;4975414;28;20737;-70
2021/05/25 07:57:46;;;;;;;2.38;0.40;;;15.80;99.90;;;;;;4973073;28;20035;-70
2021/05/25 08:00:12;;;;;;;3.95;0.68;;;15.10;99.90;;;;;;4973912;28;20034;-70
2021/05/25 08:02:42;;;;;;;2.20;0.20;;;14.60;99.90;;;;;;4969896;28;20034;-71
2021/05/25 08:05:09;;;;;;;1.73;0.20;;;13.80;99.90;;;;;;4977769;28;20038;-70
2021/05/25 08:07:34;;;;;;;1.65;0.40;;;13.00;99.90;;;;;;4975812;28;20038;-72
2021/05/25 08:10:03;;;;;;;2.50;0.40;;;12.50;99.90;;;;;;4973532;28;20046;-71
2021/05/25 08:12:29;;;;;;;5.68;0.40;;;12.20;99.90;;;;;;4974699;28;20677;-69
2021/05/25 08:14:55;;;;;;;2.55;0.63;;;11.90;99.90;;;;;;4971165;28;20906;-66
2021/05/25 08:17:26;;;;;;;4.40;0.60;;;11.80;99.90;;;;;;4972671;28;20518;-66
2021/05/25 08:19:53;;;;;;;10.40;1.60;;;11.80;99.90;;;;;;4971747;28;20061;-67
2021/05/25 08:22:18;;;;;;;7.35;1.00;;;11.90;99.90;;;;;;4976429;28;20045;-66
2021/05/25 08:24:44;;;;;;;7.13;1.52;;;12.10;99.90;;;;;;4972555;28;20039;-67
2021/05/25 08:27:10;;;;;;;5.05;0.90;;;12.20;99.90;;;;;;4969635;28;20045;-67
2021/05/25 08:29:35;;;;;;;6.95;0.93;;;12.40;99.90;;;;;;4988302;28;20057;-67
2021/05/25 08:32:01;;;;;;;9.35;1.00;;;12.60;99.90;;;;;;4971609;28;20487;-67
2021/05/25 08:34:27;;;;;;;6.13;1.20;;;13.40;99.90;;;;;;4967809;28;20054;-70
2021/05/25 08:36:52;;;;;;;4.05;1.20;;;14.30;99.90;;;;;;4967449;28;20035;-68
2021/05/25 08:39:18;;;;;;;7.25;1.65;;;15.30;99.90;;;;;;4967031;28;20137;-68
2021/05/25 08:41:44;;;;;;;10.00;2.58;;;15.80;99.90;;;;;;4969726;28;20101;-67
2021/05/25 08:44:10;;;;;;;4.53;0.60;;;16.30;99.90;;;;;;4966933;28;20043;-67
2021/05/25 08:46:37;;;;;;;7.40;1.15;;;17.10;99.90;;;;;;4966883;28;21802;-70
2021/05/25 08:49:04;;;;;;;4.35;1.35;;;17.70;99.90;;;;;;4964788;28;20031;-67
2021/05/25 08:51:30;;;;;;;3.05;0.80;;;17.90;99.90;;;;;;4967007;28;20035;-70
2021/05/25 08:53:58;;;;;;;5.15;0.80;;;18.10;99.90;;;;;;4982627;28;20079;-69
2021/05/25 08:56:24;;;;;;;6.85;0.68;;;17.60;99.90;;;;;;4965279;28;20114;-70
2021/05/25 08:58:49;;;;;;;3.22;0.85;;;16.90;99.90;;;;;;4963105;28;20495;-70
2021/05/25 09:01:15;;;;;;;7.38;0.73;;;16.60;99.90;;;;;;4969279;28;20093;-69
2021/05/25 09:04:02;;;;;;;6.75;1.75;;;16.30;99.90;;;;;;4965820;28;20037;-67
2021/05/25 09:06:39;;;;;;;4.90;0.85;;;16.30;99.90;;;;;;4967750;28;20038;-71
2021/05/25 09:09:15;;;;;;;3.78;0.80;;;16.10;99.90;;;;;;4975410;28;20030;-70
2021/05/25 09:12:00;;;;;;;6.25;0.90;;;15.80;99.90;;;;;;4966868;28;20086;-70
2021/05/25 09:14:27;;;;;;;3.22;0.65;;;15.90;99.90;;;;;;4969188;28;20059;-71
2021/05/25 09:17:22;;;;;;;3.13;1.30;;;16.10;99.90;;;;;;4978545;28;20066;-70
2021/05/25 09:19:58;;;;;;;6.85;1.08;;;16.30;99.90;;;;;;4972203;28;20030;-71
2021/05/25 09:22:27;;;;;;;4.95;0.77;;;16.40;99.90;;;;;;4972471;28;20066;-72
2021/05/25 09:24:54;;;;;;;4.80;0.77;;;16.30;99.90;;;;;;4973183;28;20038;-70
2021/05/25 09:27:36;;;;;;;7.00;1.27;;;16.10;99.90;;;;;;4966924;28;20086;-70
2021/05/25 09:30:29;;;;;;;3.40;0.90;;;16.30;99.90;;;;;;4966197;28;20034;-71
2021/05/25 09:33:09;;;;;;;5.25;0.68;;;16.40;99.90;;;;;;4965795;28;20037;-70
2021/05/25 09:35:40;;;;;;;3.33;0.82;;;16.40;99.90;;;;;;4967221;28;20042;-71
2021/05/25 09:38:27;;;;;;;4.05;0.90;;;16.10;99.90;;;;;;4959731;28;20039;-70
2021/05/25 09:40:53;;;;;;;2.13;0.60;;;15.70;99.90;;;;;;4966044;28;20039;-70
2021/05/25 09:43:24;;;;;;;7.15;1.17;;;15.60;99.90;;;;;;4973118;28;20037;-70
2021/05/25 09:46:29;;;;;;;2.10;0.60;;;15.30;99.90;;;;;;4973220;28;20385;-71
2021/05/25 09:48:55;;;;;;;4.38;1.20;;;15.00;99.90;;;;;;4970373;28;20398;-70
2021/05/25 09:51:27;;;;;;;9.65;0.85;;;15.00;99.90;;;;;;4968912;28;20023;-69
2021/05/25 09:53:53;;;;;;;5.97;0.85;;;15.40;99.90;;;;;;4971382;28;20078;-70
2021/05/25 09:56:26;;;;;;;5.68;0.57;;;15.80;99.90;;;;;;4972463;28;20034;-70
2021/05/25 09:58:54;;;;;;;2.83;0.70;;;16.00;99.90;;;;;;4962207;28;20137;-70
2021/05/25 10:01:19;;;;;;;6.05;0.60;;;16.20;99.90;;;;;;4970824;28;20042;-69
2021/05/25 10:03:54;;;;;;;3.92;0.70;;;16.60;99.90;;;;;;4967083;28;20039;-71
2021/05/25 10:06:20;;;;;;;2.55;0.57;;;16.90;99.90;;;;;;4972320;28;20511;-71
2021/05/25 10:08:48;;;;;;;3.72;0.50;;;17.20;99.90;;;;;;4977105;28;20058;-70
2021/05/25 10:11:18;;;;;;;4.55;0.75;;;17.30;99.90;;;;;;4965502;28;20035;-69
2021/05/25 10:13:44;;;;;;;5.90;0.50;;;17.60;99.90;;;;;;4975514;28;20066;-70
2021/05/25 10:16:12;;;;;;;2.60;0.40;;;17.60;99.90;;;;;;4968646;28;20105;-70
2021/05/25 10:21:25;;;;;;;2.65;0.55;;;17.20;99.90;;;;;;4963301;28;20791;-70
2021/05/25 10:23:51;;;;;;;3.38;0.43;;;17.00;99.90;;;;;;4963736;28;20113;-70
2021/05/25 10:26:21;;;;;;;4.43;0.60;;;17.00;99.90;;;;;;4965832;28;20033;-70
2021/05/25 10:28:52;;;;;;;5.53;0.60;;;17.00;99.90;;;;;;4958484;28;20038;-69
2021/05/25 10:31:38;;;;;;;5.43;0.88;;;17.20;99.90;;;;;;4962342;28;20332;-71
2021/05/25 10:34:16;;;;;;;4.57;0.60;;;17.20;99.90;;;;;;4964114;28;20043;-72
2021/05/25 10:36:53;;;;;;;4.05;0.68;;;17.20;99.90;;;;;;4965434;28;20075;-70
2021/05/25 10:39:37;;;;;;;4.90;0.60;;;17.10;99.90;;;;;;4963012;28;20138;-69
2021/05/25 10:42:21;;;;;;;4.68;1.13;;;16.80;99.90;;;;;;4964165;28;20066;-70
2021/05/25 10:44:48;;;;;;;3.78;0.60;;;16.90;99.90;;;;;;4970814;28;20026;-70
2021/05/25 10:47:19;;;;;;;4.97;0.70;;;17.10;99.90;;;;;;4966295;28;20061;-69
2021/05/25 10:50:12;;;;;;;3.90;0.52;;;17.40;99.90;;;;;;4964667;28;20050;-69
2021/05/25 10:52:38;;;;;;;6.57;1.25;;;17.60;99.90;;;;;;4964600;28;20478;-70
2021/05/25 10:55:04;;;;;;;3.95;0.47;;;17.50;99.90;;;;;;4967335;28;20038;-70
2021/05/25 10:57:40;;;;;;;2.70;0.50;;;17.20;99.90;;;;;;4967700;28;20121;-70
2021/05/25 11:00:18;;;;;;;5.53;1.05;;;16.90;99.90;;;;;;4955898;28;20402;-69
2021/05/25 11:02:45;;;;;;;2.22;0.32;;;16.60;99.90;;;;;;4974648;28;20051;-71
2021/05/25 11:05:36;;;;;;;1.40;0.38;;;16.50;99.90;;;;;;4972693;28;20034;-71
2021/05/25 11:08:07;;;;;;;6.18;0.52;;;16.50;99.90;;;;;;4962698;28;20038;-70
2021/05/25 11:10:36;;;;;;;1.73;0.50;;;16.90;99.90;;;;;;4967510;28;20038;-69
2021/05/25 11:13:32;;;;;;;4.13;0.65;;;17.20;99.90;;;;;;4958779;28;20475;-70
2021/05/25 11:16:22;;;;;;;6.22;0.98;;;17.30;99.90;;;;;;4963977;28;22711;-67
2021/05/25 11:19:32;;;;;;;1.17;0.17;;;17.00;98.90;;;;;;4962613;28;20046;-69
2021/05/25 11:22:09;;;;;;;4.40;0.43;;;16.80;99.90;;;;;;4959507;28;20042;-69
2021/05/25 11:24:37;;;;;;;1.70;0.52;;;16.80;99.90;;;;;;4966152;28;20027;-69
2021/05/25 11:27:07;;;;;;;4.43;0.98;;;16.90;99.90;;;;;;4970710;28;20574;-70
2021/05/25 11:29:35;;;;;;;1.90;0.25;;;16.80;99.80;;;;;;4962341;28;20498;-69
2021/05/25 11:32:07;;;;;;;0.88;0.10;;;16.80;99.90;;;;;;4964400;28;20047;-69
2021/05/25 11:34:32;;;;;;;1.88;0.22;;;16.70;96.70;;;;;;4966841;28;20050;-70
2021/05/25 11:37:02;;;;;;;1.33;0.20;;;16.50;96.60;;;;;;4963099;28;20027;-70
2021/05/25 11:39:29;;;;;;;0.75;0.25;;;16.30;98.90;;;;;;4964199;28;20045;-70
2021/05/25 11:41:56;;;;;;;1.80;0.20;;;16.10;98.50;;;;;;4967879;28;20085;-70
2021/05/25 11:44:29;;;;;;;2.47;0.70;;;16.00;97.90;;;;;;4965881;28;20062;-69
2021/05/25 11:46:55;;;;;;;4.40;0.20;;;15.90;99.90;;;;;;4977968;28;20417;-70
2021/05/25 11:49:20;;;;;;;2.92;0.20;;;15.80;99.90;;;;;;4973879;28;20030;-70
2021/05/25 11:51:48;;;;;;;1.15;0.10;;;15.70;99.90;;;;;;4961029;28;20035;-70
2021/05/25 11:54:19;;;;;;;2.85;0.20;;;15.80;99.60;;;;;;4969084;28;20034;-70
2021/05/25 11:56:50;;;;;;;3.90;0.20;;;15.50;99.90;;;;;;4963042;28;20043;-69
2021/05/25 11:59:21;;;;;;;1.25;0.17;;;15.30;99.90;;;;;;4965760;28;20495;-71
2021/05/25 12:01:50;;;;;;;;;;;15.40;99.90;;;;;;4965410;28;20042;-70
2021/05/25 12:04:18;;;;;;;3.08;0.28;;;15.50;99.90;;;;;;4970594;28;19918;-70
2021/05/25 12:06:51;;;;;;;1.98;0.32;;;15.60;99.90;;;;;;4964076;28;20067;-69
2021/05/25 12:09:19;;;;;;;2.08;0.17;;;15.40;99.90;;;;;;4963595;28;20090;-69
2021/05/25 12:11:46;;;;;;;3.28;0.30;;;15.20;99.90;;;;;;4960532;28;20074;-70
2021/05/25 12:14:14;;;;;;;2.03;0.20;;;14.90;99.90;;;;;;4969870;28;20502;-70
2021/05/25 12:16:41;;;;;;;0.60;0.10;;;14.80;99.90;;;;;;4968616;28;20093;-69
2021/05/25 12:19:08;;;;;;;2.75;0.32;;;14.70;99.90;;;;;;4972833;28;20041;-69
2021/05/25 12:21:34;;;;;;;1.42;0.30;;;14.50;99.90;;;;;;4972342;28;20043;-71
2021/05/25 12:24:01;;;;;;;2.20;0.22;;;14.60;99.90;;;;;;4970070;28;20077;-69
2021/05/25 12:26:27;;;;;;;2.50;0.15;;;14.60;99.90;;;;;;4970326;28;20116;-71
2021/05/25 12:28:54;;;;;;;1.38;0.10;;;14.80;99.90;;;;;;4967253;28;20058;-70
2021/05/25 12:31:21;;;;;;;1.42;0.20;;;14.90;99.90;;;;;;4985865;28;20491;-69
2021/05/25 12:33:49;;;;;;;0.32;0.10;;;15.00;99.90;;;;;;4970437;28;20495;-69
2021/05/25 12:36:40;;;;;;;1.23;0.20;;;14.90;99.90;;;;;;4969421;28;20122;-70
2021/05/25 12:39:05;;;;;;;1.33;0.10;;;14.90;99.90;;;;;;4966702;28;20371;-70
2021/05/25 12:41:41;;;;;;;1.50;0.20;;;15.10;99.90;;;;;;4969339;28;20042;-70
2021/05/25 12:44:11;;;;;;;1.70;0.17;;;15.60;99.90;;;;;;4969709;28;20031;-69
2021/05/25 12:46:59;;;;;;;;;;;15.80;99.90;;;;;;4970184;28;20035;-70
2021/05/25 12:49:34;;;;;;;1.17;0.40;;;16.00;99.90;;;;;;4966583;28;20350;-69
2021/05/25 12:52:24;;;;;;;0.93;0.40;;;16.30;99.90;;;;;;4968150;28;20456;-69
2021/05/25 12:54:54;;;;;;;1.20;0.30;;;16.50;99.90;;;;;;4962698;28;20058;-71
2021/05/25 12:57:20;;;;;;;1.73;0.52;;;16.60;99.90;;;;;;4974008;28;20035;-69
2021/05/25 12:59:56;;;;;;;2.45;0.20;;;16.60;99.90;;;;;;4966970;28;20030;-69
2021/05/25 13:02:38;;;;;;;2.80;0.30;;;16.50;99.90;;;;;;4969189;28;20034;-70